Time;durP1;ratioP1;P1;durP2;ratioP2;P2;SDS_P1;SDS_P2;PMS_P1;PMS_P2;Temp;Humidity;BMP_temperature;BMP_pressure;BME280_temperature;BME280_humidity;BME280_pressure;Samples;Min_cycle;Max_cycle;Signal;HPM_P1;HPM_P2
2022/11/02 00:01:57;;;;;;;4.60;2.90;;;;;;;;;;1875969;76;20994;-62
2022/11/02 00:04:26;;;;;;;3.85;2.45;;;;;;;;;;1875990;76;21125;-62
2022/11/02 00:06:54;;;;;;;4.53;2.70;;;;;;;;;;1875855;76;21064;-62
2022/11/02 00:09:23;;;;;;;11.05;3.30;;;;;;;;;;1875951;76;21045;-61
2022/11/02 00:11:51;;;;;;;5.33;2.83;;;;;;;;;;1875799;76;21038;-62
2022/11/02 00:14:20;;;;;;;5.30;2.42;;;;;;;;;;1875832;76;21050;-62
2022/11/02 00:16:49;;;;;;;5.00;2.77;;;;;;;;;;1875847;76;21108;-61
2022/11/02 00:19:18;;;;;;;4.72;2.75;;;;;;;;;;1875872;76;21057;-61
2022/11/02 00:21:46;;;;;;;7.42;2.90;;;;;;;;;;1875863;76;21111;-61
2022/11/02 00:24:15;;;;;;;5.53;2.75;;;;;;;;;;1875823;76;21045;-62
2022/11/02 00:26:44;;;;;;;3.22;2.12;;;;;;;;;;1871837;76;21069;-61
2022/11/02 00:29:13;;;;;;;6.50;2.30;;;;;;;;;;1878893;76;21093;-62
2022/11/02 00:31:42;;;;;;;9.75;4.97;;;;;;;;;;1878828;76;21022;-61
2022/11/02 00:34:12;;;;;;;9.38;4.03;;;;;;;;;;1878855;76;21353;-61
2022/11/02 00:36:41;;;;;;;5.40;3.10;;;;;;;;;;1878861;76;21070;-61
2022/11/02 00:39:09;;;;;;;7.87;2.60;;;;;;;;;;1878911;76;21045;-61
2022/11/02 00:41:38;;;;;;;6.25;2.65;;;;;;;;;;1879196;76;21030;-62
2022/11/02 00:44:07;;;;;;;7.45;2.70;;;;;;;;;;1880060;76;21038;-61
2022/11/02 00:46:36;;;;;;;5.03;2.85;;;;;;;;;;1878938;76;21107;-61
2022/11/02 00:49:05;;;;;;;3.72;2.65;;;;;;;;;;1878999;76;21107;-61
2022/11/02 00:51:35;;;;;;;7.15;3.27;;;;;;;;;;1878841;76;21045;-61
2022/11/02 00:54:03;;;;;;;6.85;2.85;;;;;;;;;;1879989;76;21111;-61
2022/11/02 00:56:33;;;;;;;5.65;3.00;;;;;;;;;;1878950;76;21077;-61
2022/11/02 00:59:03;;;;;;;3.62;2.42;;;;;;;;;;1878835;76;21107;-61
2022/11/02 01:01:32;;;;;;;5.00;2.52;;;;;;;;;;1878853;76;21127;-61
2022/11/02 01:04:01;;;;;;;4.28;2.30;;;;;;;;;;1878900;76;21107;-61
2022/11/02 01:06:30;;;;;;;3.55;2.12;;;;;;;;;;1878889;76;21045;-61
2022/11/02 01:09:00;;;;;;;4.58;2.47;;;;;;;;;;1873163;76;21047;-61
2022/11/02 01:11:28;;;;;;;4.28;2.75;;;;;;;;;;1878962;76;21014;-61
2022/11/02 01:13:57;;;;;;;5.53;2.60;;;;;;;;;;1878961;76;21042;-61
2022/11/02 01:16:26;;;;;;;8.10;2.62;;;;;;;;;;1879081;76;21038;-61
2022/11/02 01:18:55;;;;;;;7.62;3.37;;;;;;;;;;1869912;76;21045;-61
2022/11/02 01:21:24;;;;;;;3.77;2.85;;;;;;;;;;1875795;76;21131;-61
2022/11/02 01:23:52;;;;;;;8.58;3.27;;;;;;;;;;1878957;76;21180;-61
2022/11/02 01:26:21;;;;;;;5.60;3.35;;;;;;;;;;1879202;75;21033;-61
2022/11/02 01:28:51;;;;;;;7.90;3.67;;;;;;;;;;1879051;76;21111;-61
2022/11/02 01:31:20;;;;;;;5.92;3.47;;;;;;;;;;1878989;76;21073;-61
2022/11/02 01:33:49;;;;;;;7.30;3.50;;;;;;;;;;1878952;76;21041;-61
2022/11/02 01:36:22;;;;;;;4.90;2.58;;;;;;;;;;1879007;76;21041;-61
2022/11/02 01:38:53;;;;;;;4.63;2.80;;;;;;;;;;1879235;76;21025;-61
2022/11/02 01:41:22;;;;;;;4.35;2.70;;;;;;;;;;1878969;76;21084;-61
2022/11/02 01:43:52;;;;;;;4.83;2.58;;;;;;;;;;1879100;76;21046;-61
2022/11/02 01:46:22;;;;;;;5.72;2.80;;;;;;;;;;1879222;76;21026;-61
2022/11/02 01:48:57;;;;;;;5.45;2.20;;;;;;;;;;1879093;76;21467;-61
2022/11/02 01:51:27;;;;;;;4.70;2.77;;;;;;;;;;1878979;76;21028;-61
2022/11/02 01:53:57;;;;;;;4.45;2.67;;;;;;;;;;1879162;76;21116;-61
2022/11/02 01:56:27;;;;;;;4.40;2.52;;;;;;;;;;1879085;76;21069;-61
2022/11/02 01:58:57;;;;;;;6.83;2.50;;;;;;;;;;1879245;76;21049;-61
2022/11/02 02:01:25;;;;;;;4.37;2.60;;;;;;;;;;1879141;76;21053;-61
2022/11/02 02:03:55;;;;;;;2.47;2.00;;;;;;;;;;1879218;76;21041;-61
2022/11/02 02:06:28;;;;;;;5.95;3.05;;;;;;;;;;1878913;76;21021;-61
2022/11/02 02:08:55;;;;;;;3.30;2.10;;;;;;;;;;1878416;76;21135;-60
2022/11/02 02:11:28;;;;;;;4.42;2.60;;;;;;;;;;1878917;76;21006;-61
2022/11/02 02:13:58;;;;;;;8.93;2.50;;;;;;;;;;1879068;76;21033;-61
2022/11/02 02:16:28;;;;;;;3.87;2.50;;;;;;;;;;1878966;76;21091;-61
2022/11/02 02:18:58;;;;;;;5.80;2.25;;;;;;;;;;1879286;76;21123;-61
2022/11/02 02:21:47;;;;;;;4.65;2.70;;;;;;;;;;1879016;76;21041;-61
2022/11/02 02:24:30;;;;;;;3.83;2.25;;;;;;;;;;1877482;76;21026;-61
2022/11/02 02:27:05;;;;;;;5.87;2.62;;;;;;;;;;1876488;76;21092;-61
2022/11/02 02:29:35;;;;;;;4.65;2.30;;;;;;;;;;1879219;76;21460;-61
2022/11/02 02:32:05;;;;;;;5.58;2.58;;;;;;;;;;1878986;76;21057;-61
2022/11/02 02:34:35;;;;;;;3.70;2.70;;;;;;;;;;1879030;76;21014;-61
2022/11/02 02:37:09;;;;;;;6.72;3.15;;;;;;;;;;1879003;76;21053;-61
2022/11/02 02:39:39;;;;;;;4.08;3.22;;;;;;;;;;1879039;76;21031;-61
2022/11/02 02:42:12;;;;;;;6.12;2.70;;;;;;;;;;1879056;76;21070;-61
2022/11/02 02:44:42;;;;;;;5.22;2.98;;;;;;;;;;1879083;76;21034;-61
2022/11/02 02:47:12;;;;;;;3.08;2.33;;;;;;;;;;1879126;76;21092;-61
2022/11/02 02:49:42;;;;;;;5.17;2.65;;;;;;;;;;1879018;76;21057;-61
2022/11/02 02:52:11;;;;;;;4.15;2.60;;;;;;;;;;1878912;76;21025;-61
2022/11/02 02:54:43;;;;;;;5.15;3.27;;;;;;;;;;1879124;76;21018;-61
2022/11/02 02:57:13;;;;;;;5.65;3.30;;;;;;;;;;1878940;76;21057;-61
2022/11/02 02:59:43;;;;;;;8.30;2.83;;;;;;;;;;1878986;76;21037;-61
2022/11/02 03:02:18;;;;;;;5.35;2.65;;;;;;;;;;1878966;76;21088;-61
2022/11/02 03:04:46;;;;;;;6.17;3.80;;;;;;;;;;1877614;76;21127;-61
2022/11/02 03:07:16;;;;;;;6.30;2.80;;;;;;;;;;1879014;76;21112;-61
2022/11/02 03:09:52;;;;;;;6.17;3.70;;;;;;;;;;1878982;76;21033;-61
2022/11/02 03:12:22;;;;;;;9.63;4.15;;;;;;;;;;1875820;76;21050;-61
2022/11/02 03:14:56;;;;;;;13.50;6.00;;;;;;;;;;1878973;76;21096;-61
2022/11/02 03:17:31;;;;;;;8.40;3.80;;;;;;;;;;1879165;76;21127;-61
2022/11/02 03:20:01;;;;;;;8.10;3.35;;;;;;;;;;1879023;76;21034;-61
2022/11/02 03:22:31;;;;;;;6.55;4.72;;;;;;;;;;1877886;76;21159;-61
2022/11/02 03:25:02;;;;;;;4.92;3.40;;;;;;;;;;1878933;76;21046;-61
2022/11/02 03:27:32;;;;;;;7.45;2.92;;;;;;;;;;1878937;76;21042;-61
2022/11/02 03:30:03;;;;;;;5.87;2.67;;;;;;;;;;1878886;76;21103;-61
2022/11/02 03:32:42;;;;;;;14.05;4.60;;;;;;;;;;1879012;76;21111;-60
2022/11/02 03:35:16;;;;;;;25.00;6.40;;;;;;;;;;1878228;76;21030;-61
2022/11/02 03:37:54;;;;;;;16.75;4.55;;;;;;;;;;1878996;76;21010;-61
2022/11/02 03:40:25;;;;;;;7.08;2.98;;;;;;;;;;1879044;76;21042;-61
2022/11/02 03:42:54;;;;;;;22.42;4.40;;;;;;;;;;1878801;76;21103;-61
2022/11/02 03:45:25;;;;;;;7.30;3.55;;;;;;;;;;1879091;76;21069;-61
2022/11/02 03:47:55;;;;;;;12.13;3.30;;;;;;;;;;1879025;76;21057;-61
2022/11/02 03:50:26;;;;;;;5.45;3.40;;;;;;;;;;1878775;76;21471;-61
2022/11/02 03:52:59;;;;;;;8.58;3.90;;;;;;;;;;1878978;76;21474;-61
2022/11/02 03:55:29;;;;;;;8.45;4.35;;;;;;;;;;1878994;76;21021;-61
2022/11/02 03:57:59;;;;;;;9.90;4.40;;;;;;;;;;1878988;76;21061;-61
2022/11/02 04:00:30;;;;;;;10.72;5.25;;;;;;;;;;1878910;76;21060;-60
2022/11/02 04:03:07;;;;;;;9.53;4.53;;;;;;;;;;1878832;76;21510;-61
2022/11/02 04:05:38;;;;;;;7.97;4.37;;;;;;;;;;1873281;76;21082;-60
2022/11/02 04:08:21;;;;;;;14.85;5.37;;;;;;;;;;1876803;76;21072;-60
2022/11/02 04:16:27;;;;;;;8.35;4.10;;;;;;;;;;1879123;76;21057;-60
2022/11/02 04:25:14;;;;;;;10.38;5.25;;;;;;;;;;1878752;76;21088;-60
2022/11/02 04:27:00;;;;;;;12.05;5.80;;;;;;;;;;1878865;76;21119;-60
2022/11/02 04:29:29;;;;;;;8.95;3.90;;;;;;;;;;1878974;76;21050;-60
2022/11/02 04:31:58;;;;;;;9.88;5.12;;;;;;;;;;1878775;76;21495;-60
2022/11/02 04:34:28;;;;;;;9.93;4.33;;;;;;;;;;1871520;76;21129;-60
2022/11/02 04:36:57;;;;;;;12.90;8.20;;;;;;;;;;1878942;76;21076;-61
2022/11/02 04:39:26;;;;;;;4.85;4.33;;;;;;;;;;1878851;76;21038;-61
2022/11/02 04:41:55;;;;;;;10.60;3.75;;;;;;;;;;1878874;76;21111;-61
2022/11/02 04:44:25;;;;;;;6.05;3.05;;;;;;;;;;1878952;76;21049;-61
2022/11/02 04:46:56;;;;;;;6.03;3.47;;;;;;;;;;1878195;76;21111;-61
2022/11/02 04:49:26;;;;;;;9.00;4.08;;;;;;;;;;1878808;76;21025;-61
2022/11/02 04:51:55;;;;;;;8.03;3.30;;;;;;;;;;1878780;76;21046;-61
2022/11/02 04:54:25;;;;;;;15.08;5.30;;;;;;;;;;1878915;76;21042;-61
2022/11/02 04:56:56;;;;;;;9.83;5.35;;;;;;;;;;1878843;76;21022;-61
2022/11/02 04:59:25;;;;;;;12.65;4.53;;;;;;;;;;1878805;76;21096;-61
2022/11/02 05:01:54;;;;;;;11.63;4.87;;;;;;;;;;1878835;76;21033;-61
2022/11/02 05:04:22;;;;;;;9.05;5.47;;;;;;;;;;1878924;76;21038;-61
2022/11/02 05:06:51;;;;;;;11.90;5.95;;;;;;;;;;1878938;76;21009;-61
2022/11/02 05:09:21;;;;;;;17.15;5.55;;;;;;;;;;1878865;76;21104;-61
2022/11/02 05:11:49;;;;;;;23.67;6.78;;;;;;;;;;1878699;76;21103;-61
2022/11/02 05:14:18;;;;;;;14.35;4.92;;;;;;;;;;1878847;76;21049;-61
2022/11/02 05:16:47;;;;;;;14.75;5.42;;;;;;;;;;1878796;76;21108;-61
2022/11/02 05:19:16;;;;;;;11.53;5.12;;;;;;;;;;1878578;76;21034;-61
2022/11/02 05:21:44;;;;;;;14.18;4.60;;;;;;;;;;1878582;76;21033;-60
2022/11/02 05:24:14;;;;;;;11.25;5.65;;;;;;;;;;1878601;76;21061;-61
2022/11/02 05:26:43;;;;;;;8.90;4.83;;;;;;;;;;1878684;76;21101;-61
2022/11/02 05:29:12;;;;;;;16.48;5.83;;;;;;;;;;1878826;76;21046;-61
2022/11/02 05:31:40;;;;;;;20.05;7.78;;;;;;;;;;1878613;76;21053;-61
2022/11/02 05:34:09;;;;;;;20.10;9.20;;;;;;;;;;1878600;76;21031;-61
2022/11/02 05:36:38;;;;;;;23.60;13.25;;;;;;;;;;1878773;76;21053;-61
2022/11/02 05:39:07;;;;;;;11.70;5.90;;;;;;;;;;1878979;76;21096;-61
2022/11/02 05:41:36;;;;;;;16.97;7.20;;;;;;;;;;1878923;76;21127;-61
2022/11/02 05:44:05;;;;;;;18.55;7.95;;;;;;;;;;1879032;76;21108;-61
2022/11/02 05:46:35;;;;;;;18.12;7.28;;;;;;;;;;1878861;76;21041;-61
2022/11/02 05:49:04;;;;;;;18.75;6.75;;;;;;;;;;1878844;76;21042;-61
2022/11/02 05:51:33;;;;;;;21.12;6.78;;;;;;;;;;1878742;76;21060;-61
2022/11/02 05:54:01;;;;;;;18.07;6.83;;;;;;;;;;1878718;76;21086;-61
2022/11/02 05:56:30;;;;;;;12.90;4.85;;;;;;;;;;1878707;76;21116;-61
2022/11/02 05:58:59;;;;;;;19.23;6.00;;;;;;;;;;1878814;76;21107;-61
2022/11/02 06:01:28;;;;;;;9.25;4.20;;;;;;;;;;1878815;76;21029;-61
2022/11/02 06:03:56;;;;;;;14.13;4.55;;;;;;;;;;1873633;76;21050;-61
2022/11/02 06:06:25;;;;;;;10.70;4.62;;;;;;;;;;1878816;76;21034;-61
2022/11/02 06:08:54;;;;;;;16.23;6.15;;;;;;;;;;1879681;76;21085;-61
2022/11/02 06:11:23;;;;;;;9.80;4.00;;;;;;;;;;1878692;76;21091;-60
2022/11/02 06:13:51;;;;;;;13.85;4.97;;;;;;;;;;1878830;76;21025;-61
2022/11/02 06:16:20;;;;;;;16.40;4.53;;;;;;;;;;1878851;76;21058;-61
2022/11/02 06:18:49;;;;;;;6.80;3.72;;;;;;;;;;1879011;76;21108;-61
2022/11/02 06:21:18;;;;;;;6.97;3.67;;;;;;;;;;1864453;76;21045;-60
2022/11/02 06:23:47;;;;;;;5.72;3.58;;;;;;;;;;1878996;76;21037;-60
2022/11/02 06:26:16;;;;;;;8.28;3.85;;;;;;;;;;1876261;76;21041;-61
2022/11/02 06:28:46;;;;;;;6.95;3.15;;;;;;;;;;1872207;76;21029;-61
2022/11/02 06:31:16;;;;;;;12.10;3.83;;;;;;;;;;1878948;76;21026;-61
2022/11/02 06:33:44;;;;;;;6.10;3.70;;;;;;;;;;1878846;76;21034;-61
2022/11/02 06:36:13;;;;;;;8.98;3.80;;;;;;;;;;1879049;76;21108;-60
2022/11/02 06:38:43;;;;;;;5.90;2.90;;;;;;;;;;1856896;76;21030;-61
2022/11/02 06:41:11;;;;;;;11.88;3.47;;;;;;;;;;1866690;76;21116;-61
2022/11/02 06:43:40;;;;;;;7.90;4.05;;;;;;;;;;1865852;76;21057;-60
2022/11/02 06:46:09;;;;;;;8.28;4.00;;;;;;;;;;1874953;76;21053;-60
2022/11/02 06:48:38;;;;;;;15.80;4.45;;;;;;;;;;1875824;76;21046;-60
2022/11/02 06:51:06;;;;;;;16.10;6.58;;;;;;;;;;1875791;76;21123;-61
2022/11/02 06:53:35;;;;;;;13.53;5.70;;;;;;;;;;1867083;76;21127;-60
2022/11/02 06:56:04;;;;;;;13.43;5.42;;;;;;;;;;1871136;76;21386;-61
2022/11/02 06:58:32;;;;;;;8.50;4.92;;;;;;;;;;1875954;76;21033;-61
2022/11/02 07:01:02;;;;;;;18.95;5.33;;;;;;;;;;1869840;76;21041;-61
2022/11/02 07:03:31;;;;;;;7.67;4.62;;;;;;;;;;1875843;76;21049;-61
2022/11/02 07:06:00;;;;;;;10.70;5.25;;;;;;;;;;1875827;76;21029;-60
2022/11/02 07:08:29;;;;;;;17.55;6.72;;;;;;;;;;1875857;76;21119;-61
2022/11/02 07:10:58;;;;;;;14.33;8.38;;;;;;;;;;1865118;76;21054;-60
2022/11/02 07:13:26;;;;;;;19.00;8.53;;;;;;;;;;1865787;76;21107;-60
2022/11/02 07:15:55;;;;;;;19.00;7.92;;;;;;;;;;1871759;76;21049;-61
2022/11/02 07:18:24;;;;;;;23.15;8.93;;;;;;;;;;1875808;76;21092;-60
2022/11/02 07:20:52;;;;;;;15.68;5.67;;;;;;;;;;1875809;76;21005;-60
2022/11/02 07:23:22;;;;;;;5.50;3.47;;;;;;;;;;1875824;76;21218;-61
2022/11/02 07:25:51;;;;;;;4.28;1.60;;;;;;;;;;1875895;76;21095;-61
2022/11/02 07:28:20;;;;;;;1.15;1.00;;;;;;;;;;1875843;76;21041;-61
2022/11/02 07:30:48;;;;;;;4.65;1.20;;;;;;;;;;1875824;76;21029;-61
2022/11/02 07:33:17;;;;;;;2.35;1.20;;;;;;;;;;1862250;76;21043;-61
2022/11/02 07:35:46;;;;;;;2.75;1.10;;;;;;;;;;1877306;76;21029;-61
2022/11/02 07:38:14;;;;;;;11.50;3.17;;;;;;;;;;1879036;76;21045;-61
2022/11/02 07:40:43;;;;;;;2.20;1.20;;;;;;;;;;1879843;76;21156;-60
2022/11/02 07:43:12;;;;;;;3.10;1.32;;;;;;;;;;1869874;76;21204;-61
2022/11/02 07:45:48;;;;;;;4.35;1.27;;;;;;;;;;1879058;76;21052;-61
2022/11/02 07:48:16;;;;;;;3.42;1.20;;;;;;;;;;1878863;76;21018;-61
2022/11/02 07:50:45;;;;;;;4.83;1.30;;;;;;;;;;1878972;76;21115;-61
2022/11/02 07:53:14;;;;;;;5.53;1.80;;;;;;;;;;1878995;76;21077;-61
2022/11/02 07:55:42;;;;;;;7.47;1.50;;;;;;;;;;1878791;76;21091;-61
2022/11/02 07:58:14;;;;;;;3.40;1.52;;;;;;;;;;1878870;76;21057;-61
2022/11/02 08:00:43;;;;;;;2.83;1.22;;;;;;;;;;1878922;76;21087;-61
2022/11/02 08:03:12;;;;;;;6.70;1.10;;;;;;;;;;1878935;76;21030;-59
2022/11/02 08:05:42;;;;;;;0.98;0.80;;;;;;;;;;1878840;76;21108;-60
2022/11/02 08:08:12;;;;;;;3.45;1.22;;;;;;;;;;1878826;76;21062;-60
2022/11/02 08:10:42;;;;;;;2.37;0.90;;;;;;;;;;1878676;76;21046;-60
2022/11/02 08:13:11;;;;;;;3.50;1.07;;;;;;;;;;1878840;76;21042;-60
2022/11/02 08:15:40;;;;;;;8.33;1.77;;;;;;;;;;1878888;76;21041;-60
2022/11/02 08:18:10;;;;;;;11.63;6.00;;;;;;;;;;1872652;76;21182;-60
2022/11/02 08:20:38;;;;;;;1.37;0.98;;;;;;;;;;1878816;76;21060;-60
2022/11/02 08:23:09;;;;;;;2.25;1.22;;;;;;;;;;1878833;76;21103;-60
2022/11/02 08:25:38;;;;;;;4.75;1.00;;;;;;;;;;1878890;76;21005;-60
2022/11/02 08:28:07;;;;;;;1.05;0.88;;;;;;;;;;1878778;76;21119;-60
2022/11/02 08:30:37;;;;;;;4.53;1.07;;;;;;;;;;1878754;76;21054;-60
2022/11/02 08:33:08;;;;;;;3.58;1.40;;;;;;;;;;1878782;76;21033;-60
2022/11/02 08:35:37;;;;;;;7.35;1.30;;;;;;;;;;1878697;76;21030;-60
2022/11/02 08:38:06;;;;;;;5.67;1.45;;;;;;;;;;1878909;76;21034;-60
2022/11/02 08:40:35;;;;;;;2.02;1.00;;;;;;;;;;1878815;76;21119;-60
2022/11/02 08:43:08;;;;;;;3.20;1.50;;;;;;;;;;1878913;76;21131;-60
2022/11/02 08:45:37;;;;;;;5.33;1.72;;;;;;;;;;1878826;76;21475;-60
2022/11/02 08:48:06;;;;;;;7.67;1.25;;;;;;;;;;1878926;76;21038;-60
2022/11/02 08:50:35;;;;;;;3.75;1.20;;;;;;;;;;1878848;76;21100;-60
2022/11/02 08:53:04;;;;;;;10.98;1.60;;;;;;;;;;1879017;76;21030;-60
2022/11/02 08:55:32;;;;;;;0.90;0.90;;;;;;;;;;1878882;76;21025;-60
2022/11/02 08:58:01;;;;;;;4.72;1.12;;;;;;;;;;1878931;76;21005;-60
2022/11/02 09:00:30;;;;;;;2.10;1.02;;;;;;;;;;1869838;76;21049;-60
2022/11/02 09:03:07;;;;;;;4.10;1.00;;;;;;;;;;1874536;76;21135;-60
2022/11/02 09:05:36;;;;;;;2.33;1.02;;;;;;;;;;1878928;76;21507;-60
2022/11/02 09:08:06;;;;;;;5.20;0.90;;;;;;;;;;1878907;76;21021;-60
2022/11/02 09:10:36;;;;;;;1.42;0.85;;;;;;;;;;1878749;76;21476;-60
2022/11/02 09:13:05;;;;;;;1.52;0.90;;;;;;;;;;1878804;76;21095;-60
2022/11/02 09:15:35;;;;;;;1.25;0.90;;;;;;;;;;1878829;76;21609;-60
2022/11/02 09:18:04;;;;;;;1.72;1.00;;;;;;;;;;1878772;76;21025;-60
2022/11/02 09:20:33;;;;;;;2.77;1.50;;;;;;;;;;1878743;76;21049;-60
2022/11/02 09:23:02;;;;;;;3.60;1.00;;;;;;;;;;1878014;76;21179;-61
2022/11/02 09:25:30;;;;;;;2.72;1.00;;;;;;;;;;1878012;76;21021;-59
2022/11/02 09:27:58;;;;;;;4.22;1.00;;;;;;;;;;1878274;76;21104;-62
2022/11/02 09:30:31;;;;;;;4.97;1.00;;;;;;;;;;1878187;76;21103;-62
2022/11/02 09:33:00;;;;;;;2.65;0.90;;;;;;;;;;1878312;76;21022;-61
